Aviation Digital Data Service (ADDS)

Output produced by METARs form (0646 UTC 28 September 2022)
found at http://www.aviationweather.gov/metar/data/
 
VTUU 280600Z 27018KT 3000 RA BKN015 OVC040 24/24 Q0997 NOSIG
VTUU 280500Z 28019G30KT 240V310 3500 RA OVC015 24/24 Q0998 RERA NOSIG
VTUU 280400Z 28015KT 4000 RA BKN010 OVC025 25/25 Q0999 RERA NOSIG
VTUU 280300Z 28015G26KT 2500 +RA BKN010 OVC020 24/24 Q1000 NOSIG
VTUU 280200Z 28013KT 2500 +RA BKN015 OVC040 25/25 Q1000 NOSIG
VTUU 280100Z 29013KT 260V360 2500 +RA BKN015 OVC030 25/25 Q1000 NOSIG
VTUU 280000Z 28010KT 250V310 4000 RA SCT010 OVC040 25/25 Q1000 NOSIG
VTUU 272300Z 29012KT 4000 RA BKN010 OVC040 25/25 Q1000 NOSIG
VTUU 272200Z 27013KT 6000 -RA BKN010 OVC020 25/25 Q1000 NOSIG
VTUU 272100Z 25014KT 6000 -RA BKN010 OVC060 25/25 Q1000 NOSIG
VTUU 272000Z 26013KT 7000 -RA BKN030 OVC060 25/25 Q1001 NOSIG
VTUU 271900Z 26008KT 7000 -RA FEW030 OVC080 26/26 Q1002 NOSIG
VTUU 271800Z 26006KT 7000 -RA FEW040 OVC070 26/26 Q1003 NOSIG
VTUU 271700Z 26007KT 7000 -RA FEW040 26/26 Q1004 NOSIG
VTUU 271600Z 28004KT 6000 -RA SCT020 BKN040 26/26 Q1006 NOSIG
VTUU 271500Z 36002KT 6000 -RA BKN040 27/27 Q1006 NOSIG
VTUU 271400Z 26004KT 7000 -RA SCT045 27/26 Q1006 NOSIG
VTUU 271300Z 25004KT 7000 NSC 27/26 Q1005 NOSIG
VTUU 271200Z 28003KT 7000 NSC 27/25 Q1005 NOSIG
VTUU 271100Z VRB02KT 6000 NSC 28/25 Q1004 NOSIG
VTUU 271000Z VRB05KT 7000 NSC 28/24 Q1004 NOSIG
VTUU 270900Z 33005KT 300V010 7000 FEW020 29/24 Q1003 NOSIG
VTUU 270800Z 33006KT 290V010 8000 FEW025 29/24 Q1004 NOSIG
VTUU 270700Z 35007KT 320V030 8000 FEW025 29/24 Q1004 NOSIG
VTUU 270600Z 35006KT 300V040 8000 FEW025 29/24 Q1005 NOSIG
TAF VTUU 280500Z 2806/2906 27015KT 4000 RA SCT030 
     TEMPO 2806/2812 24015G25KT 3000 RA SCT020 OVC040 
     TEMPO 2817/2820 18015KT 4000 RA SCT020 OVC050